sensor_id;sensor_type;location;lat;lon;timestamp;temperature;humidity
10083;DHT22;5080;48.528;8.078;2023-03-15T00:00:29;5.50;99.90
10083;DHT22;5080;48.528;8.078;2023-03-15T00:02:56;5.50;99.90
10083;DHT22;5080;48.528;8.078;2023-03-15T00:05:23;5.50;99.90
10083;DHT22;5080;48.528;8.078;2023-03-15T00:07:50;5.40;99.90
10083;DHT22;5080;48.528;8.078;2023-03-15T00:10:18;5.50;99.90
10083;DHT22;5080;48.528;8.078;2023-03-15T00:12:46;5.40;99.90
10083;DHT22;5080;48.528;8.078;2023-03-15T00:15:13;5.40;99.90
10083;DHT22;5080;48.528;8.078;2023-03-15T00:17:40;5.50;99.90
10083;DHT22;5080;48.528;8.078;2023-03-15T00:20:10;5.50;99.90
10083;DHT22;5080;48.528;8.078;2023-03-15T00:22:37;5.40;99.90
10083;DHT22;5080;48.528;8.078;2023-03-15T00:25:05;5.50;99.90
10083;DHT22;5080;48.528;8.078;2023-03-15T00:27:32;5.50;99.90
10083;DHT22;5080;48.528;8.078;2023-03-15T00:30:00;5.40;99.90
10083;DHT22;5080;48.528;8.078;2023-03-15T00:32:27;5.50;99.90
10083;DHT22;5080;48.528;8.078;2023-03-15T00:34:54;5.40;99.90
10083;DHT22;5080;48.528;8.078;2023-03-15T00:37:21;5.50;99.90
10083;DHT22;5080;48.528;8.078;2023-03-15T00:39:50;5.50;99.90
10083;DHT22;5080;48.528;8.078;2023-03-15T00:42:20;5.50;99.90
10083;DHT22;5080;48.528;8.078;2023-03-15T00:44:52;5.60;99.90
10083;DHT22;5080;48.528;8.078;2023-03-15T00:47:21;5.50;99.90
10083;DHT22;5080;48.528;8.078;2023-03-15T00:49:48;5.50;99.90
10083;DHT22;5080;48.528;8.078;2023-03-15T00:52:15;5.50;99.90
10083;DHT22;5080;48.528;8.078;2023-03-15T00:54:42;5.40;99.90
10083;DHT22;5080;48.528;8.078;2023-03-15T00:57:09;5.50;99.90
10083;DHT22;5080;48.528;8.078;2023-03-15T00:59:35;5.40;99.90
10083;DHT22;5080;48.528;8.078;2023-03-15T01:02:03;5.40;99.90
10083;DHT22;5080;48.528;8.078;2023-03-15T01:04:33;5.40;99.90
10083;DHT22;5080;48.528;8.078;2023-03-15T01:07:06;5.40;99.90
10083;DHT22;5080;48.528;8.078;2023-03-15T01:09:36;5.30;99.90
10083;DHT22;5080;48.528;8.078;2023-03-15T01:12:13;5.30;99.90
10083;DHT22;5080;48.528;8.078;2023-03-15T01:14:42;5.30;99.90
10083;DHT22;5080;48.528;8.078;2023-03-15T01:17:11;5.30;99.90
10083;DHT22;5080;48.528;8.078;2023-03-15T01:19:40;5.30;99.90
10083;DHT22;5080;48.528;8.078;2023-03-15T01:22:12;5.30;99.90
10083;DHT22;5080;48.528;8.078;2023-03-15T01:24:44;5.30;99.90
10083;DHT22;5080;48.528;8.078;2023-03-15T01:27:14;5.30;99.90
10083;DHT22;5080;48.528;8.078;2023-03-15T01:29:41;5.30;99.90
10083;DHT22;5080;48.528;8.078;2023-03-15T01:32:14;5.30;99.90
10083;DHT22;5080;48.528;8.078;2023-03-15T01:34:52;5.30;99.90
10083;DHT22;5080;48.528;8.078;2023-03-15T01:37:21;5.30;99.90
10083;DHT22;5080;48.528;8.078;2023-03-15T01:39:52;5.30;99.90
10083;DHT22;5080;48.528;8.078;2023-03-15T01:42:19;5.30;99.90
10083;DHT22;5080;48.528;8.078;2023-03-15T01:44:55;5.20;99.90
10083;DHT22;5080;48.528;8.078;2023-03-15T01:47:24;5.10;99.90
10083;DHT22;5080;48.528;8.078;2023-03-15T01:49:57;5.10;99.90
10083;DHT22;5080;48.528;8.078;2023-03-15T01:52:32;5.10;99.90
10083;DHT22;5080;48.528;8.078;2023-03-15T01:55:05;5.10;99.90
10083;DHT22;5080;48.528;8.078;2023-03-15T01:57:39;5.10;99.90
10083;DHT22;5080;48.528;8.078;2023-03-15T02:00:19;5.20;99.90
10083;DHT22;5080;48.528;8.078;2023-03-15T02:02:53;5.10;99.90
10083;DHT22;5080;48.528;8.078;2023-03-15T02:05:27;5.00;99.90
10083;DHT22;5080;48.528;8.078;2023-03-15T02:08:01;5.00;99.90
10083;DHT22;5080;48.528;8.078;2023-03-15T02:10:42;5.00;99.90
10083;DHT22;5080;48.528;8.078;2023-03-15T02:13:12;5.00;99.90
10083;DHT22;5080;48.528;8.078;2023-03-15T02:15:48;5.10;99.90
10083;DHT22;5080;48.528;8.078;2023-03-15T02:18:18;5.10;99.90
10083;DHT22;5080;48.528;8.078;2023-03-15T02:20:55;5.10;99.90
10083;DHT22;5080;48.528;8.078;2023-03-15T02:23:30;5.20;99.90
10083;DHT22;5080;48.528;8.078;2023-03-15T02:26:07;5.10;99.90
10083;DHT22;5080;48.528;8.078;2023-03-15T02:28:40;5.10;99.90
10083;DHT22;5080;48.528;8.078;2023-03-15T02:31:10;5.10;99.90
10083;DHT22;5080;48.528;8.078;2023-03-15T02:33:43;5.10;99.90
10083;DHT22;5080;48.528;8.078;2023-03-15T02:36:20;5.10;99.90
10083;DHT22;5080;48.528;8.078;2023-03-15T02:38:55;5.00;99.90
10083;DHT22;5080;48.528;8.078;2023-03-15T02:41:35;5.00;99.90
10083;DHT22;5080;48.528;8.078;2023-03-15T02:44:17;5.00;99.90
10083;DHT22;5080;48.528;8.078;2023-03-15T02:46:51;5.00;99.90
10083;DHT22;5080;48.528;8.078;2023-03-15T02:49:23;5.00;99.90
10083;DHT22;5080;48.528;8.078;2023-03-15T02:51:58;5.00;99.90
10083;DHT22;5080;48.528;8.078;2023-03-15T02:54:30;4.90;99.90
10083;DHT22;5080;48.528;8.078;2023-03-15T02:57:01;5.00;99.90
10083;DHT22;5080;48.528;8.078;2023-03-15T02:59:42;4.80;99.90
10083;DHT22;5080;48.528;8.078;2023-03-15T03:02:12;4.70;99.90
10083;DHT22;5080;48.528;8.078;2023-03-15T03:04:45;4.50;99.90
10083;DHT22;5080;48.528;8.078;2023-03-15T03:07:17;4.40;99.90
10083;DHT22;5080;48.528;8.078;2023-03-15T03:09:57;4.20;99.90
10083;DHT22;5080;48.528;8.078;2023-03-15T03:12:25;4.10;99.90
10083;DHT22;5080;48.528;8.078;2023-03-15T03:14:53;4.00;99.90
10083;DHT22;5080;48.528;8.078;2023-03-15T03:17:25;4.00;99.90
10083;DHT22;5080;48.528;8.078;2023-03-15T03:19:58;3.90;99.90
10083;DHT22;5080;48.528;8.078;2023-03-15T03:22:39;3.80;99.90
10083;DHT22;5080;48.528;8.078;2023-03-15T03:25:08;3.70;99.90
10083;DHT22;5080;48.528;8.078;2023-03-15T03:27:41;3.60;99.90
10083;DHT22;5080;48.528;8.078;2023-03-15T03:30:14;3.60;99.90
10083;DHT22;5080;48.528;8.078;2023-03-15T03:32:44;3.50;99.90
10083;DHT22;5080;48.528;8.078;2023-03-15T03:35:17;3.40;99.90
10083;DHT22;5080;48.528;8.078;2023-03-15T03:37:48;3.40;99.90
10083;DHT22;5080;48.528;8.078;2023-03-15T03:40:18;3.30;99.90
10083;DHT22;5080;48.528;8.078;2023-03-15T03:42:48;3.20;99.90
10083;DHT22;5080;48.528;8.078;2023-03-15T03:45:21;3.20;99.90
10083;DHT22;5080;48.528;8.078;2023-03-15T03:47:51;3.20;99.90
10083;DHT22;5080;48.528;8.078;2023-03-15T03:50:19;3.10;99.90
10083;DHT22;5080;48.528;8.078;2023-03-15T03:52:50;3.00;99.90
10083;DHT22;5080;48.528;8.078;2023-03-15T03:55:21;3.00;99.90
10083;DHT22;5080;48.528;8.078;2023-03-15T03:57:53;3.00;99.90
10083;DHT22;5080;48.528;8.078;2023-03-15T04:00:21;3.00;99.90
10083;DHT22;5080;48.528;8.078;2023-03-15T04:02:50;3.00;99.90
10083;DHT22;5080;48.528;8.078;2023-03-15T04:05:20;3.00;99.90
10083;DHT22;5080;48.528;8.078;2023-03-15T04:07:52;3.00;99.90
10083;DHT22;5080;48.528;8.078;2023-03-15T04:10:21;2.90;99.90
10083;DHT22;5080;48.528;8.078;2023-03-15T04:12:52;2.90;99.90
10083;DHT22;5080;48.528;8.078;2023-03-15T04:15:22;3.00;99.90
10083;DHT22;5080;48.528;8.078;2023-03-15T04:17:55;2.90;99.90
10083;DHT22;5080;48.528;8.078;2023-03-15T04:20:24;2.90;99.90
10083;DHT22;5080;48.528;8.078;2023-03-15T04:22:53;2.90;99.90
10083;DHT22;5080;48.528;8.078;2023-03-15T04:25:24;2.90;99.90
10083;DHT22;5080;48.528;8.078;2023-03-15T04:27:51;2.90;99.90
10083;DHT22;5080;48.528;8.078;2023-03-15T04:30:29;2.80;99.90
10083;DHT22;5080;48.528;8.078;2023-03-15T04:32:59;2.80;99.90
10083;DHT22;5080;48.528;8.078;2023-03-15T04:35:32;2.70;99.90
10083;DHT22;5080;48.528;8.078;2023-03-15T04:38:07;2.70;99.90
10083;DHT22;5080;48.528;8.078;2023-03-15T04:40:38;2.60;99.90
10083;DHT22;5080;48.528;8.078;2023-03-15T04:43:12;2.70;99.90
10083;DHT22;5080;48.528;8.078;2023-03-15T04:45:44;2.70;99.90
10083;DHT22;5080;48.528;8.078;2023-03-15T04:48:11;2.60;99.90
10083;DHT22;5080;48.528;8.078;2023-03-15T04:50:51;2.60;99.90
10083;DHT22;5080;48.528;8.078;2023-03-15T04:53:18;2.60;99.90
10083;DHT22;5080;48.528;8.078;2023-03-15T04:55:45;2.50;99.90
10083;DHT22;5080;48.528;8.078;2023-03-15T04:58:16;2.50;99.90
10083;DHT22;5080;48.528;8.078;2023-03-15T05:00:48;2.50;99.90
10083;DHT22;5080;48.528;8.078;2023-03-15T05:03:21;2.50;99.90
10083;DHT22;5080;48.528;8.078;2023-03-15T05:05:52;2.40;99.90
10083;DHT22;5080;48.528;8.078;2023-03-15T05:08:34;2.40;99.90
10083;DHT22;5080;48.528;8.078;2023-03-15T05:11:06;2.40;99.90
10083;DHT22;5080;48.528;8.078;2023-03-15T05:13:38;2.50;99.90
10083;DHT22;5080;48.528;8.078;2023-03-15T05:16:06;2.50;99.90
10083;DHT22;5080;48.528;8.078;2023-03-15T05:18:37;2.40;99.90
10083;DHT22;5080;48.528;8.078;2023-03-15T05:21:07;2.40;99.90
10083;DHT22;5080;48.528;8.078;2023-03-15T05:23:36;2.40;99.90
10083;DHT22;5080;48.528;8.078;2023-03-15T05:26:07;2.30;99.90
10083;DHT22;5080;48.528;8.078;2023-03-15T05:28:34;2.30;99.90
10083;DHT22;5080;48.528;8.078;2023-03-15T05:31:03;2.30;99.90
10083;DHT22;5080;48.528;8.078;2023-03-15T05:33:34;2.30;99.90
10083;DHT22;5080;48.528;8.078;2023-03-15T05:36:03;2.20;99.90
10083;DHT22;5080;48.528;8.078;2023-03-15T05:38:30;2.20;99.90
10083;DHT22;5080;48.528;8.078;2023-03-15T05:40:57;2.20;99.90
10083;DHT22;5080;48.528;8.078;2023-03-15T05:43:28;2.10;99.90
10083;DHT22;5080;48.528;8.078;2023-03-15T05:46:04;2.10;99.90
10083;DHT22;5080;48.528;8.078;2023-03-15T05:48:31;2.00;99.90
10083;DHT22;5080;48.528;8.078;2023-03-15T05:51:02;2.00;99.90
10083;DHT22;5080;48.528;8.078;2023-03-15T05:53:34;1.90;99.90
10083;DHT22;5080;48.528;8.078;2023-03-15T05:56:07;2.00;99.90
10083;DHT22;5080;48.528;8.078;2023-03-15T05:58:34;2.00;99.90
10083;DHT22;5080;48.528;8.078;2023-03-15T06:01:03;2.00;99.90
10083;DHT22;5080;48.528;8.078;2023-03-15T06:03:30;2.00;99.90
10083;DHT22;5080;48.528;8.078;2023-03-15T06:06:03;2.00;99.90
10083;DHT22;5080;48.528;8.078;2023-03-15T06:08:30;2.00;99.90
10083;DHT22;5080;48.528;8.078;2023-03-15T06:11:03;2.00;99.90
10083;DHT22;5080;48.528;8.078;2023-03-15T06:13:32;2.10;99.90
10083;DHT22;5080;48.528;8.078;2023-03-15T06:16:03;2.20;99.90
10083;DHT22;5080;48.528;8.078;2023-03-15T06:18:34;2.30;99.90
10083;DHT22;5080;48.528;8.078;2023-03-15T06:21:03;2.30;99.90
10083;DHT22;5080;48.528;8.078;2023-03-15T06:23:38;2.40;99.90
10083;DHT22;5080;48.528;8.078;2023-03-15T06:26:05;2.40;99.90
10083;DHT22;5080;48.528;8.078;2023-03-15T06:28:31;2.40;99.90
10083;DHT22;5080;48.528;8.078;2023-03-15T06:31:04;2.40;99.90
10083;DHT22;5080;48.528;8.078;2023-03-15T06:33:32;2.40;99.90
10083;DHT22;5080;48.528;8.078;2023-03-15T06:35:59;2.50;99.90
10083;DHT22;5080;48.528;8.078;2023-03-15T06:38:27;2.50;99.90
10083;DHT22;5080;48.528;8.078;2023-03-15T06:40:54;2.50;99.90
10083;DHT22;5080;48.528;8.078;2023-03-15T06:43:22;2.60;99.90
10083;DHT22;5080;48.528;8.078;2023-03-15T06:45:49;2.60;99.90
10083;DHT22;5080;48.528;8.078;2023-03-15T06:48:18;2.60;99.90
10083;DHT22;5080;48.528;8.078;2023-03-15T06:50:45;2.70;99.90
10083;DHT22;5080;48.528;8.078;2023-03-15T06:53:12;2.70;99.90
10083;DHT22;5080;48.528;8.078;2023-03-15T06:55:40;2.80;99.90
10083;DHT22;5080;48.528;8.078;2023-03-15T06:58:07;2.80;99.90
10083;DHT22;5080;48.528;8.078;2023-03-15T07:00:34;2.90;99.90
10083;DHT22;5080;48.528;8.078;2023-03-15T07:03:01;2.90;99.90
10083;DHT22;5080;48.528;8.078;2023-03-15T07:05:27;2.80;99.90
10083;DHT22;5080;48.528;8.078;2023-03-15T07:07:54;2.90;99.90
10083;DHT22;5080;48.528;8.078;2023-03-15T07:10:21;3.00;99.90
10083;DHT22;5080;48.528;8.078;2023-03-15T07:12:49;3.10;99.90
10083;DHT22;5080;48.528;8.078;2023-03-15T07:15:16;3.20;99.90
10083;DHT22;5080;48.528;8.078;2023-03-15T07:17:43;3.30;99.90
10083;DHT22;5080;48.528;8.078;2023-03-15T07:20:11;3.40;99.90
10083;DHT22;5080;48.528;8.078;2023-03-15T07:22:37;3.40;99.90
10083;DHT22;5080;48.528;8.078;2023-03-15T07:25:05;3.40;99.90
10083;DHT22;5080;48.528;8.078;2023-03-15T07:27:32;3.40;99.90
10083;DHT22;5080;48.528;8.078;2023-03-15T07:30:01;3.50;99.90
10083;DHT22;5080;48.528;8.078;2023-03-15T07:32:28;3.60;99.90
10083;DHT22;5080;48.528;8.078;2023-03-15T07:34:56;3.80;99.90
10083;DHT22;5080;48.528;8.078;2023-03-15T07:37:26;3.90;99.90
10083;DHT22;5080;48.528;8.078;2023-03-15T07:39:52;4.00;99.90
10083;DHT22;5080;48.528;8.078;2023-03-15T07:42:19;4.20;99.90
10083;DHT22;5080;48.528;8.078;2023-03-15T07:44:46;4.40;99.90
10083;DHT22;5080;48.528;8.078;2023-03-15T07:47:14;4.50;99.90
10083;DHT22;5080;48.528;8.078;2023-03-15T07:49:41;4.60;99.90
10083;DHT22;5080;48.528;8.078;2023-03-15T07:52:08;4.80;99.90
10083;DHT22;5080;48.528;8.078;2023-03-15T07:54:35;4.90;99.90
10083;DHT22;5080;48.528;8.078;2023-03-15T07:57:02;5.10;99.90
10083;DHT22;5080;48.528;8.078;2023-03-15T07:59:29;5.30;99.90
10083;DHT22;5080;48.528;8.078;2023-03-15T08:01:55;5.50;99.90
10083;DHT22;5080;48.528;8.078;2023-03-15T08:04:24;5.70;99.90
10083;DHT22;5080;48.528;8.078;2023-03-15T08:06:50;5.90;99.90
10083;DHT22;5080;48.528;8.078;2023-03-15T08:09:17;6.10;99.90
10083;DHT22;5080;48.528;8.078;2023-03-15T08:11:44;6.30;99.90
10083;DHT22;5080;48.528;8.078;2023-03-15T08:14:11;6.40;99.90
10083;DHT22;5080;48.528;8.078;2023-03-15T08:16:38;6.60;99.90
10083;DHT22;5080;48.528;8.078;2023-03-15T08:19:05;6.80;99.90
10083;DHT22;5080;48.528;8.078;2023-03-15T08:21:33;6.90;99.90
10083;DHT22;5080;48.528;8.078;2023-03-15T08:24:00;7.00;99.90
10083;DHT22;5080;48.528;8.078;2023-03-15T08:26:27;7.10;99.90
10083;DHT22;5080;48.528;8.078;2023-03-15T08:28:54;7.30;99.90
10083;DHT22;5080;48.528;8.078;2023-03-15T08:31:21;7.60;99.90
10083;DHT22;5080;48.528;8.078;2023-03-15T08:33:48;7.70;99.90
10083;DHT22;5080;48.528;8.078;2023-03-15T08:36:15;7.80;99.90
10083;DHT22;5080;48.528;8.078;2023-03-15T08:38:43;8.00;99.90
10083;DHT22;5080;48.528;8.078;2023-03-15T08:41:10;8.20;99.90
10083;DHT22;5080;48.528;8.078;2023-03-15T08:43:36;8.40;99.90
10083;DHT22;5080;48.528;8.078;2023-03-15T08:46:03;8.60;99.90
10083;DHT22;5080;48.528;8.078;2023-03-15T08:48:30;8.70;99.90
10083;DHT22;5080;48.528;8.078;2023-03-15T08:51:01;8.80;99.90
10083;DHT22;5080;48.528;8.078;2023-03-15T08:53:28;8.80;99.90
10083;DHT22;5080;48.528;8.078;2023-03-15T08:55:57;8.70;99.90
10083;DHT22;5080;48.528;8.078;2023-03-15T08:58:24;8.80;99.90
10083;DHT22;5080;48.528;8.078;2023-03-15T09:00:51;8.90;99.90
10083;DHT22;5080;48.528;8.078;2023-03-15T09:03:18;9.00;99.90
10083;DHT22;5080;48.528;8.078;2023-03-15T09:05:47;9.20;99.90
10083;DHT22;5080;48.528;8.078;2023-03-15T09:08:14;9.30;99.90
10083;DHT22;5080;48.528;8.078;2023-03-15T09:10:41;9.30;99.90
10083;DHT22;5080;48.528;8.078;2023-03-15T09:13:09;9.50;99.90
10083;DHT22;5080;48.528;8.078;2023-03-15T09:15:36;9.70;99.90
10083;DHT22;5080;48.528;8.078;2023-03-15T09:18:03;9.90;99.90
10083;DHT22;5080;48.528;8.078;2023-03-15T09:20:30;10.00;99.90
10083;DHT22;5080;48.528;8.078;2023-03-15T09:22:57;10.20;99.90
10083;DHT22;5080;48.528;8.078;2023-03-15T09:25:25;10.20;99.90
10083;DHT22;5080;48.528;8.078;2023-03-15T09:27:52;10.30;99.90
10083;DHT22;5080;48.528;8.078;2023-03-15T09:30:21;10.40;99.90
10083;DHT22;5080;48.528;8.078;2023-03-15T09:32:48;10.50;99.90
10083;DHT22;5080;48.528;8.078;2023-03-15T09:35:17;10.70;99.90
10083;DHT22;5080;48.528;8.078;2023-03-15T09:37:44;10.80;99.90
10083;DHT22;5080;48.528;8.078;2023-03-15T09:40:15;10.80;99.90
10083;DHT22;5080;48.528;8.078;2023-03-15T09:42:54;10.80;99.90
10083;DHT22;5080;48.528;8.078;2023-03-15T09:45:27;10.60;99.90
10083;DHT22;5080;48.528;8.078;2023-03-15T09:48:01;10.80;99.90
10083;DHT22;5080;48.528;8.078;2023-03-15T09:50:31;10.80;99.90
10083;DHT22;5080;48.528;8.078;2023-03-15T09:53:03;10.90;99.90
10083;DHT22;5080;48.528;8.078;2023-03-15T09:55:30;10.90;99.90
10083;DHT22;5080;48.528;8.078;2023-03-15T09:57:58;10.90;99.90
10083;DHT22;5080;48.528;8.078;2023-03-15T10:00:33;10.90;99.90
10083;DHT22;5080;48.528;8.078;2023-03-15T10:03:01;11.10;99.90
10083;DHT22;5080;48.528;8.078;2023-03-15T10:05:36;11.10;99.90
10083;DHT22;5080;48.528;8.078;2023-03-15T10:08:09;11.20;99.90
10083;DHT22;5080;48.528;8.078;2023-03-15T10:10:39;11.20;99.90
10083;DHT22;5080;48.528;8.078;2023-03-15T10:13:21;11.10;99.90
10083;DHT22;5080;48.528;8.078;2023-03-15T10:16:00;11.10;99.90
10083;DHT22;5080;48.528;8.078;2023-03-15T10:18:41;11.20;99.90
10083;DHT22;5080;48.528;8.078;2023-03-15T10:21:19;11.40;99.90
10083;DHT22;5080;48.528;8.078;2023-03-15T10:23:53;11.40;99.90
10083;DHT22;5080;48.528;8.078;2023-03-15T10:26:23;11.50;99.90
10083;DHT22;5080;48.528;8.078;2023-03-15T10:28:52;11.60;99.90
10083;DHT22;5080;48.528;8.078;2023-03-15T10:31:25;11.60;99.90
10083;DHT22;5080;48.528;8.078;2023-03-15T10:33:53;11.50;99.90
10083;DHT22;5080;48.528;8.078;2023-03-15T10:36:22;11.40;99.90
10083;DHT22;5080;48.528;8.078;2023-03-15T10:38:49;11.40;99.90
10083;DHT22;5080;48.528;8.078;2023-03-15T10:41:28;11.40;99.90
10083;DHT22;5080;48.528;8.078;2023-03-15T10:43:58;11.50;99.90
10083;DHT22;5080;48.528;8.078;2023-03-15T10:46:27;11.30;99.90
10083;DHT22;5080;48.528;8.078;2023-03-15T10:48:57;11.50;99.90
10083;DHT22;5080;48.528;8.078;2023-03-15T10:51:26;11.90;99.90
10083;DHT22;5080;48.528;8.078;2023-03-15T10:53:55;12.00;99.90
10083;DHT22;5080;48.528;8.078;2023-03-15T10:56:24;12.10;99.90
10083;DHT22;5080;48.528;8.078;2023-03-15T10:58:52;12.40;99.90
10083;DHT22;5080;48.528;8.078;2023-03-15T11:01:24;12.60;99.90
10083;DHT22;5080;48.528;8.078;2023-03-15T11:04:17;12.80;99.90
10083;DHT22;5080;48.528;8.078;2023-03-15T11:06:47;12.90;99.90
10083;DHT22;5080;48.528;8.078;2023-03-15T11:09:16;12.70;99.90
10083;DHT22;5080;48.528;8.078;2023-03-15T11:11:56;12.40;99.90
10083;DHT22;5080;48.528;8.078;2023-03-15T11:14:23;12.30;99.90
10083;DHT22;5080;48.528;8.078;2023-03-15T11:16:53;12.00;99.90
10083;DHT22;5080;48.528;8.078;2023-03-15T11:19:25;11.90;99.90
10083;DHT22;5080;48.528;8.078;2023-03-15T11:21:52;12.10;99.90
10083;DHT22;5080;48.528;8.078;2023-03-15T11:24:24;12.30;99.90
10083;DHT22;5080;48.528;8.078;2023-03-15T11:26:52;12.40;99.90
10083;DHT22;5080;48.528;8.078;2023-03-15T11:29:23;12.20;99.90
10083;DHT22;5080;48.528;8.078;2023-03-15T11:31:51;12.10;99.90
10083;DHT22;5080;48.528;8.078;2023-03-15T11:34:26;12.40;99.90
10083;DHT22;5080;48.528;8.078;2023-03-15T11:37:00;12.70;99.90
10083;DHT22;5080;48.528;8.078;2023-03-15T11:39:35;13.00;99.90
10083;DHT22;5080;48.528;8.078;2023-03-15T11:42:07;12.90;99.90
10083;DHT22;5080;48.528;8.078;2023-03-15T11:44:38;12.50;99.90
10083;DHT22;5080;48.528;8.078;2023-03-15T11:47:10;12.30;99.90
10083;DHT22;5080;48.528;8.078;2023-03-15T11:49:46;12.10;99.90
10083;DHT22;5080;48.528;8.078;2023-03-15T11:52:15;12.20;99.90
10083;DHT22;5080;48.528;8.078;2023-03-15T11:54:43;12.10;99.90
10083;DHT22;5080;48.528;8.078;2023-03-15T11:57:35;11.90;99.90
10083;DHT22;5080;48.528;8.078;2023-03-15T12:00:18;11.30;99.90
10083;DHT22;5080;48.528;8.078;2023-03-15T12:02:51;11.10;99.90
10083;DHT22;5080;48.528;8.078;2023-03-15T12:05:44;11.10;99.90
10083;DHT22;5080;48.528;8.078;2023-03-15T12:08:19;11.10;99.90
10083;DHT22;5080;48.528;8.078;2023-03-15T12:10:49;11.00;99.90
10083;DHT22;5080;48.528;8.078;2023-03-15T12:13:23;11.00;99.90
10083;DHT22;5080;48.528;8.078;2023-03-15T12:15:51;11.20;99.90
10083;DHT22;5080;48.528;8.078;2023-03-15T12:18:30;11.50;99.90
10083;DHT22;5080;48.528;8.078;2023-03-15T12:21:20;11.80;99.90
10083;DHT22;5080;48.528;8.078;2023-03-15T12:23:56;11.90;99.90
10083;DHT22;5080;48.528;8.078;2023-03-15T12:26:26;11.70;99.90
10083;DHT22;5080;48.528;8.078;2023-03-15T12:29:11;11.80;99.90
10083;DHT22;5080;48.528;8.078;2023-03-15T12:31:53;11.90;99.90
10083;DHT22;5080;48.528;8.078;2023-03-15T12:34:27;11.90;99.90
10083;DHT22;5080;48.528;8.078;2023-03-15T12:37:00;11.80;99.90
10083;DHT22;5080;48.528;8.078;2023-03-15T12:39:40;11.90;99.90
10083;DHT22;5080;48.528;8.078;2023-03-15T12:44:53;11.90;99.90
10083;DHT22;5080;48.528;8.078;2023-03-15T12:47:20;11.80;99.90
10083;DHT22;5080;48.528;8.078;2023-03-15T12:49:47;11.50;99.90
10083;DHT22;5080;48.528;8.078;2023-03-15T12:52:40;10.90;99.90
10083;DHT22;5080;48.528;8.078;2023-03-15T12:55:14;10.90;99.90
10083;DHT22;5080;48.528;8.078;2023-03-15T12:57:46;11.00;99.90
10083;DHT22;5080;48.528;8.078;2023-03-15T13:00:15;10.90;99.90
10083;DHT22;5080;48.528;8.078;2023-03-15T13:02:45;10.80;99.90
10083;DHT22;5080;48.528;8.078;2023-03-15T13:05:24;10.70;99.90
10083;DHT22;5080;48.528;8.078;2023-03-15T13:08:00;10.60;99.90
10083;DHT22;5080;48.528;8.078;2023-03-15T13:10:37;10.40;99.90
10083;DHT22;5080;48.528;8.078;2023-03-15T13:13:21;10.20;99.90
10083;DHT22;5080;48.528;8.078;2023-03-15T13:16:00;10.20;99.90
10083;DHT22;5080;48.528;8.078;2023-03-15T13:18:35;10.10;99.90
10083;DHT22;5080;48.528;8.078;2023-03-15T13:21:12;10.00;99.90
10083;DHT22;5080;48.528;8.078;2023-03-15T13:23:46;10.00;99.90
10083;DHT22;5080;48.528;8.078;2023-03-15T13:26:28;9.80;99.90
10083;DHT22;5080;48.528;8.078;2023-03-15T13:29:00;9.70;99.90
10083;DHT22;5080;48.528;8.078;2023-03-15T13:31:28;9.60;99.90
10083;DHT22;5080;48.528;8.078;2023-03-15T13:33:57;9.40;99.90
10083;DHT22;5080;48.528;8.078;2023-03-15T13:36:38;9.20;99.90
10083;DHT22;5080;48.528;8.078;2023-03-15T13:39:16;9.00;99.90
10083;DHT22;5080;48.528;8.078;2023-03-15T13:41:43;9.00;99.90
10083;DHT22;5080;48.528;8.078;2023-03-15T13:44:16;9.10;99.90
10083;DHT22;5080;48.528;8.078;2023-03-15T13:46:45;9.30;99.90
10083;DHT22;5080;48.528;8.078;2023-03-15T13:49:11;9.30;99.90
10083;DHT22;5080;48.528;8.078;2023-03-15T13:51:39;9.50;99.90
10083;DHT22;5080;48.528;8.078;2023-03-15T13:54:10;9.60;99.90
10083;DHT22;5080;48.528;8.078;2023-03-15T13:56:46;9.70;99.90
10083;DHT22;5080;48.528;8.078;2023-03-15T13:59:20;9.70;99.90
10083;DHT22;5080;48.528;8.078;2023-03-15T14:01:48;9.70;99.90
10083;DHT22;5080;48.528;8.078;2023-03-15T14:04:19;9.60;99.90
10083;DHT22;5080;48.528;8.078;2023-03-15T14:06:46;9.40;99.90
10083;DHT22;5080;48.528;8.078;2023-03-15T14:09:19;9.40;99.90
10083;DHT22;5080;48.528;8.078;2023-03-15T14:12:00;9.50;99.90
10083;DHT22;5080;48.528;8.078;2023-03-15T14:14:28;9.20;99.90
10083;DHT22;5080;48.528;8.078;2023-03-15T14:16:56;9.10;99.90
10083;DHT22;5080;48.528;8.078;2023-03-15T14:19:25;8.90;99.90
10083;DHT22;5080;48.528;8.078;2023-03-15T14:21:53;8.80;99.90
10083;DHT22;5080;48.528;8.078;2023-03-15T14:24:26;8.90;99.90
10083;DHT22;5080;48.528;8.078;2023-03-15T14:26:57;8.80;99.90
10083;DHT22;5080;48.528;8.078;2023-03-15T14:29:27;8.60;99.90
10083;DHT22;5080;48.528;8.078;2023-03-15T14:31:58;8.60;99.90
10083;DHT22;5080;48.528;8.078;2023-03-15T14:34:30;8.60;99.90
10083;DHT22;5080;48.528;8.078;2023-03-15T14:36:59;8.60;99.90
10083;DHT22;5080;48.528;8.078;2023-03-15T14:39:36;8.40;99.90
10083;DHT22;5080;48.528;8.078;2023-03-15T14:42:04;8.30;99.90
10083;DHT22;5080;48.528;8.078;2023-03-15T14:44:31;8.30;99.90
10083;DHT22;5080;48.528;8.078;2023-03-15T14:46:58;8.30;99.90
10083;DHT22;5080;48.528;8.078;2023-03-15T14:49:26;8.40;99.90
10083;DHT22;5080;48.528;8.078;2023-03-15T14:51:56;8.40;99.90
10083;DHT22;5080;48.528;8.078;2023-03-15T14:54:24;8.40;99.90
10083;DHT22;5080;48.528;8.078;2023-03-15T14:56:54;8.40;99.90
10083;DHT22;5080;48.528;8.078;2023-03-15T14:59:21;8.50;99.90
10083;DHT22;5080;48.528;8.078;2023-03-15T15:01:50;8.70;99.90
10083;DHT22;5080;48.528;8.078;2023-03-15T15:04:18;8.80;99.90
10083;DHT22;5080;48.528;8.078;2023-03-15T15:06:47;8.70;99.90
10083;DHT22;5080;48.528;8.078;2023-03-15T15:09:20;8.80;99.90
10083;DHT22;5080;48.528;8.078;2023-03-15T15:11:48;9.10;99.90
10083;DHT22;5080;48.528;8.078;2023-03-15T15:14:16;9.20;99.90
10083;DHT22;5080;48.528;8.078;2023-03-15T15:16:44;9.40;99.90
10083;DHT22;5080;48.528;8.078;2023-03-15T15:19:11;9.40;99.90
10083;DHT22;5080;48.528;8.078;2023-03-15T15:21:39;9.40;99.90
10083;DHT22;5080;48.528;8.078;2023-03-15T15:24:12;9.40;99.90
10083;DHT22;5080;48.528;8.078;2023-03-15T15:26:39;9.40;99.90
10083;DHT22;5080;48.528;8.078;2023-03-15T15:29:10;9.40;99.90
10083;DHT22;5080;48.528;8.078;2023-03-15T15:31:39;9.40;99.90
10083;DHT22;5080;48.528;8.078;2023-03-15T15:34:06;9.40;99.90
10083;DHT22;5080;48.528;8.078;2023-03-15T15:36:34;9.40;99.90
10083;DHT22;5080;48.528;8.078;2023-03-15T15:39:02;9.50;99.90
10083;DHT22;5080;48.528;8.078;2023-03-15T15:41:31;9.60;99.90
10083;DHT22;5080;48.528;8.078;2023-03-15T15:43:58;9.50;99.90
10083;DHT22;5080;48.528;8.078;2023-03-15T15:46:25;9.20;99.90
10083;DHT22;5080;48.528;8.078;2023-03-15T15:48:53;9.20;99.90
10083;DHT22;5080;48.528;8.078;2023-03-15T15:51:24;9.10;99.90
10083;DHT22;5080;48.528;8.078;2023-03-15T15:53:53;9.00;99.90
10083;DHT22;5080;48.528;8.078;2023-03-15T15:56:23;8.80;99.90
10083;DHT22;5080;48.528;8.078;2023-03-15T15:58:52;8.90;99.90
10083;DHT22;5080;48.528;8.078;2023-03-15T16:01:19;8.90;99.90
10083;DHT22;5080;48.528;8.078;2023-03-15T16:03:46;9.00;99.90
10083;DHT22;5080;48.528;8.078;2023-03-15T16:06:17;9.00;99.90
10083;DHT22;5080;48.528;8.078;2023-03-15T16:08:45;9.10;99.90
10083;DHT22;5080;48.528;8.078;2023-03-15T16:11:14;9.10;99.90
10083;DHT22;5080;48.528;8.078;2023-03-15T16:13:41;8.90;99.90
10083;DHT22;5080;48.528;8.078;2023-03-15T16:16:11;8.80;99.90
10083;DHT22;5080;48.528;8.078;2023-03-15T16:18:39;8.70;99.90
10083;DHT22;5080;48.528;8.078;2023-03-15T16:21:06;8.60;99.90